createdAt,value
2023-01-10T06:46:16.298Z,89.84
2023-01-10T06:49:11.696Z,89.84
2023-01-10T06:51:57.047Z,93.02
2023-01-10T06:54:42.635Z,94.02
2023-01-10T06:57:29.443Z,91.67
2023-01-10T07:00:17.137Z,92.11
2023-01-10T07:03:05.382Z,92.78
2023-01-10T07:05:50.749Z,91.98
2023-01-10T07:08:37.701Z,94.64
2023-01-10T07:11:23.236Z,94.48
2023-01-10T07:14:10.067Z,92.43
2023-01-10T07:16:55.858Z,95.01
2023-01-10T07:19:41.179Z,97.54
2023-01-10T07:22:26.654Z,98.14
2023-01-10T07:25:12.032Z,97.97
2023-01-10T07:27:57.496Z,97.05
2023-01-10T07:30:43.561Z,97.64
2023-01-10T07:33:29.700Z,95.53
2023-01-10T07:36:15.685Z,96.53
2023-01-10T07:39:00.871Z,94.25
2023-01-10T07:41:53.594Z,91.46
2023-01-10T07:44:39.480Z,93.01
2023-01-10T07:47:26.643Z,92.90
2023-01-10T07:50:13.163Z,91.97
2023-01-10T07:53:01.310Z,92.71
2023-01-10T07:55:47.995Z,92.18
2023-01-10T07:58:35.926Z,92.58
2023-01-10T08:01:21.631Z,95.34
2023-01-10T08:04:07.497Z,92.65
2023-01-10T08:06:54.938Z,94.99
2023-01-10T08:09:40.696Z,93.45
2023-01-10T08:12:26.319Z,92.13
2023-01-10T08:15:12.255Z,92.89
2023-01-10T08:18:05.015Z,93.74
2023-01-10T08:20:53.136Z,92.52
2023-01-10T08:23:39.671Z,92.84
2023-01-10T08:26:25.167Z,91.97
2023-01-10T08:29:10.163Z,88.44
2023-01-10T08:31:55.835Z,89.95
2023-01-10T08:34:41.448Z,90.69
2023-01-10T08:37:27.719Z,90.18
2023-01-10T08:40:14.618Z,91.54
2023-01-10T08:43:01.797Z,90.75
2023-01-10T08:45:47.438Z,90.08
2023-01-10T08:48:33.347Z,89.59
2023-01-10T08:51:18.927Z,89.75
2023-01-10T08:54:04.323Z,88.63
2023-01-10T08:56:50.954Z,88.94
2023-01-10T08:59:36.279Z,88.78
2023-01-10T09:02:21.773Z,89.26
2023-01-10T09:05:26.416Z,88.67
2023-01-10T09:08:12.470Z,89.18
2023-01-10T09:11:01.773Z,89.93
2023-01-10T09:13:50.654Z,89.38
2023-01-10T09:16:36.017Z,89.75
2023-01-10T09:19:21.330Z,89.43
2023-01-10T09:22:07.643Z,89.66
2023-01-10T09:24:52.855Z,88.72
2023-01-10T09:27:38.339Z,89.05
2023-01-10T09:30:23.554Z,89.07
2023-01-10T09:33:10.521Z,89.72
2023-01-10T09:35:58.657Z,90.40
2023-01-10T09:38:45.361Z,90.24
2023-01-10T09:41:49.175Z,89.96
2023-01-10T09:44:38.753Z,88.96
2023-01-10T09:47:45.845Z,88.95
2023-01-10T09:51:05.289Z,90.16
2023-01-10T09:53:53.844Z,90.40
2023-01-10T09:56:41.676Z,91.48
2023-01-10T09:59:37.513Z,89.39
2023-01-10T10:02:33.355Z,89.20
2023-01-10T10:05:26.934Z,88.98
2023-01-10T10:08:18.075Z,88.87
2023-01-10T10:11:11.090Z,88.95
2023-01-10T10:14:02.688Z,88.47
2023-01-10T10:17:16.417Z,89.34
2023-01-10T10:20:20.211Z,89.17
2023-01-10T10:23:26.018Z,89.55
2023-01-10T10:26:35.576Z,89.95
2023-01-10T10:29:50.410Z,89.82
2023-01-10T10:32:50.678Z,89.43
2023-01-10T10:35:42.248Z,88.66
2023-01-10T10:38:30.782Z,88.80
2023-01-10T10:41:28.951Z,89.23
2023-01-10T10:44:42.490Z,88.99
2023-01-10T10:47:33.254Z,88.12
2023-01-10T10:50:26.337Z,88.94
2023-01-10T10:53:12.516Z,88.28
2023-01-10T10:55:59.077Z,89.17
2023-01-10T10:58:46.490Z,89.04
2023-01-10T11:01:31.622Z,89.10
2023-01-10T11:04:20.158Z,88.39
2023-01-10T11:07:05.829Z,89.82
2023-01-10T11:09:56.078Z,88.57
2023-01-10T11:12:48.088Z,89.00
2023-01-10T11:15:42.804Z,89.43
2023-01-10T11:18:30.673Z,90.62
2023-01-10T11:21:21.056Z,89.91
2023-01-10T11:24:21.600Z,88.99
2023-01-10T11:27:27.096Z,89.25
2023-01-10T11:30:19.841Z,88.35
2023-01-10T11:33:09.064Z,89.33
2023-01-10T11:36:16.007Z,88.98
2023-01-10T11:39:05.113Z,89.52
2023-01-10T11:41:53.262Z,89.73
2023-01-10T11:44:38.695Z,90.39
2023-01-10T11:47:37.969Z,89.73
2023-01-10T11:50:41.092Z,89.55
2023-01-10T11:53:36.729Z,88.67
2023-01-10T11:56:41.715Z,88.94
2023-01-10T11:59:28.349Z,90.05
2023-01-10T12:02:36.293Z,88.48
2023-01-10T12:05:29.890Z,88.24
2023-01-10T12:08:33.595Z,89.88
2023-01-10T12:11:31.945Z,89.84
2023-01-10T12:14:21.489Z,89.47
2023-01-10T12:17:07.243Z,88.97
2023-01-10T12:19:54.098Z,87.28
2023-01-10T12:22:42.107Z,88.19
2023-01-10T12:25:33.677Z,88.42
2023-01-10T12:28:25.126Z,88.19
2023-01-10T12:31:15.399Z,87.85
2023-01-10T12:34:05.543Z,87.99
2023-01-10T12:37:31.462Z,88.23
